createdAt,value
2019-05-31T00:00:47.798Z,15.98
2019-05-31T00:01:47.820Z,15.85
2019-05-31T00:02:47.840Z,15.91
2019-05-31T00:03:47.861Z,15.88
2019-05-31T00:04:47.883Z,15.81
2019-05-31T00:05:47.907Z,15.78
2019-05-31T00:06:47.932Z,15.75
2019-05-31T00:07:47.944Z,15.76
2019-05-31T00:08:47.967Z,15.84
2019-05-31T00:09:47.988Z,15.76
2019-05-31T00:10:48.007Z,15.75
2019-05-31T00:11:48.031Z,15.72
2019-05-31T00:12:48.070Z,15.66
2019-05-31T00:13:48.127Z,15.70
2019-05-31T00:14:48.139Z,15.66
2019-05-31T00:15:48.146Z,15.63
2019-05-31T00:16:48.193Z,15.69
2019-05-31T00:17:48.193Z,15.57
2019-05-31T00:18:48.187Z,15.60
2019-05-31T00:19:48.210Z,15.54
2019-05-31T00:20:48.216Z,15.50
2019-05-31T00:21:48.237Z,15.50
2019-05-31T00:22:48.256Z,15.50
2019-05-31T00:23:48.279Z,15.51
2019-05-31T00:24:48.299Z,15.43
2019-05-31T00:25:48.330Z,15.41
2019-05-31T00:26:48.340Z,15.45
2019-05-31T00:27:48.362Z,15.37
2019-05-31T00:28:48.380Z,15.41
2019-05-31T00:29:48.403Z,15.33
2019-05-31T00:30:48.419Z,15.33
2019-05-31T00:31:48.442Z,15.29
2019-05-31T00:32:48.468Z,15.19
2019-05-31T00:33:48.484Z,15.27
2019-05-31T00:34:48.506Z,15.23
2019-05-31T00:35:48.527Z,15.26
2019-05-31T00:36:48.547Z,15.18
2019-05-31T00:37:48.565Z,15.17
2019-05-31T00:38:48.586Z,15.12
2019-05-31T00:39:48.610Z,15.08
2019-05-31T00:40:48.628Z,15.17
2019-05-31T00:41:48.648Z,15.05
2019-05-31T00:42:48.669Z,15.08
2019-05-31T00:43:48.688Z,15.15
2019-05-31T00:44:48.713Z,15.04
2019-05-31T00:45:48.731Z,15.07
2019-05-31T00:46:48.751Z,15.05
2019-05-31T00:47:48.775Z,15.04
2019-05-31T00:48:48.792Z,14.99
2019-05-31T00:49:48.814Z,14.94
2019-05-31T00:50:48.833Z,14.93
2019-05-31T00:51:48.853Z,14.92
2019-05-31T00:52:48.873Z,14.90
2019-05-31T00:53:48.895Z,14.96
2019-05-31T00:54:48.916Z,14.89
2019-05-31T00:55:48.936Z,14.87
2019-05-31T00:56:48.955Z,14.78
2019-05-31T00:57:48.976Z,14.77
2019-05-31T00:58:48.995Z,14.82
2019-05-31T00:59:49.016Z,14.78
2019-05-31T01:00:49.039Z,14.78
2019-05-31T01:01:49.059Z,14.77
2019-05-31T01:02:49.076Z,14.71
2019-05-31T01:03:49.097Z,14.61
2019-05-31T01:04:49.117Z,14.66
2019-05-31T01:05:49.137Z,14.62
2019-05-31T01:06:49.167Z,14.67
2019-05-31T01:07:49.175Z,14.67
2019-05-31T01:08:49.197Z,14.67
2019-05-31T01:09:49.218Z,14.63
2019-05-31T01:10:49.242Z,14.53
2019-05-31T01:11:49.259Z,14.51
2019-05-31T01:12:49.279Z,14.51
2019-05-31T01:13:49.299Z,14.51
2019-05-31T01:14:50.327Z,14.53
2019-05-31T01:15:49.339Z,14.53
2019-05-31T01:16:49.364Z,14.53
2019-05-31T01:17:49.381Z,14.55
2019-05-31T01:18:49.400Z,14.43
2019-05-31T01:19:49.421Z,14.45
2019-05-31T01:20:49.440Z,14.40
2019-05-31T01:21:49.460Z,14.43
2019-05-31T01:22:49.479Z,14.43
2019-05-31T01:23:49.500Z,14.37
2019-05-31T01:24:49.524Z,14.34
2019-05-31T01:25:49.541Z,14.37
2019-05-31T01:26:49.559Z,14.28
2019-05-31T01:27:49.580Z,14.41
2019-05-31T01:28:49.607Z,14.23
2019-05-31T01:29:49.619Z,14.30
2019-05-31T01:30:49.639Z,14.20
2019-05-31T01:31:49.659Z,14.26
2019-05-31T01:32:49.682Z,14.20
2019-05-31T01:33:49.701Z,14.22
2019-05-31T01:34:49.722Z,14.18
2019-05-31T01:35:49.739Z,14.11
2019-05-31T01:36:49.759Z,14.25
2019-05-31T01:37:49.778Z,14.16
2019-05-31T01:38:49.804Z,14.19
2019-05-31T01:39:49.820Z,14.20
2019-05-31T01:40:49.840Z,14.18
2019-05-31T01:41:49.862Z,14.12
2019-05-31T01:42:49.881Z,14.13
2019-05-31T01:43:49.901Z,14.12
2019-05-31T01:45:04.674Z,14.08
2019-05-31T01:45:49.971Z,14.07
2019-05-31T01:46:50.032Z,14.07
2019-05-31T01:47:50.033Z,14.05
2019-05-31T01:48:50.054Z,14.04
2019-05-31T01:49:50.077Z,14.01
2019-05-31T01:50:50.076Z,14.05
2019-05-31T01:51:50.081Z,13.95
2019-05-31T01:52:50.080Z,14.00
2019-05-31T01:53:50.101Z,13.94
2019-05-31T01:54:50.117Z,13.97
2019-05-31T01:55:50.140Z,13.91
2019-05-31T01:56:50.161Z,13.97
2019-05-31T01:57:50.177Z,13.87
2019-05-31T01:58:50.199Z,13.91
2019-05-31T01:59:50.215Z,13.93
2019-05-31T02:00:50.237Z,13.87
2019-05-31T02:01:50.257Z,13.91
2019-05-31T02:02:50.279Z,13.86
2019-05-31T02:03:50.297Z,13.93
2019-05-31T02:04:50.317Z,13.89
2019-05-31T02:05:50.336Z,13.91
2019-05-31T02:06:50.355Z,13.85
2019-05-31T02:07:50.375Z,13.91
2019-05-31T02:08:50.404Z,13.80
2019-05-31T02:09:50.415Z,13.78
2019-05-31T02:10:50.434Z,13.83
2019-05-31T02:11:50.453Z,13.80
2019-05-31T02:12:50.473Z,13.80
2019-05-31T02:13:50.495Z,13.83
2019-05-31T02:14:50.511Z,13.76
2019-05-31T02:15:50.535Z,13.80
2019-05-31T02:16:50.550Z,13.75
2019-05-31T02:17:50.601Z,13.80
2019-05-31T02:18:50.626Z,13.78
2019-05-31T02:19:50.611Z,13.80
2019-05-31T02:20:50.631Z,13.83
2019-05-31T02:21:50.651Z,13.68
2019-05-31T02:22:50.670Z,13.83
2019-05-31T02:23:50.689Z,13.73
2019-05-31T02:24:50.711Z,13.76
2019-05-31T02:25:50.730Z,13.68
2019-05-31T02:26:50.801Z,13.67
2019-05-31T02:27:50.770Z,13.68
2019-05-31T02:28:50.790Z,13.68
2019-05-31T02:29:50.808Z,13.62
2019-05-31T02:30:50.831Z,13.65
2019-05-31T02:31:50.848Z,13.65
2019-05-31T02:32:50.884Z,13.67
2019-05-31T02:33:50.889Z,13.71
2019-05-31T02:34:50.907Z,13.64
2019-05-31T02:35:50.927Z,13.71
2019-05-31T02:36:50.946Z,13.73
2019-05-31T02:37:50.968Z,13.62
2019-05-31T02:38:50.982Z,13.65
2019-05-31T02:39:51.003Z,13.61
2019-05-31T02:40:51.024Z,13.62
2019-05-31T02:41:51.048Z,13.57
2019-05-31T02:42:51.069Z,13.62
2019-05-31T02:43:51.081Z,13.58
2019-05-31T02:44:51.099Z,13.52
2019-05-31T02:45:51.119Z,13.58
2019-05-31T02:46:51.141Z,13.55
2019-05-31T02:47:51.159Z,13.62
2019-05-31T02:48:51.183Z,13.60
2019-05-31T02:49:51.198Z,13.50
2019-05-31T02:50:51.218Z,13.60
2019-05-31T02:51:51.235Z,13.55
2019-05-31T02:52:51.263Z,13.55
2019-05-31T02:53:51.277Z,13.61
2019-05-31T02:54:51.293Z,13.55
2019-05-31T02:55:51.315Z,13.49
2019-05-31T02:56:51.336Z,13.55
2019-05-31T02:57:51.358Z,13.54
2019-05-31T02:58:51.372Z,13.45
2019-05-31T02:59:52.262Z,13.54
2019-05-31T03:00:51.413Z,13.55
2019-05-31T03:01:51.436Z,13.50
2019-05-31T03:02:51.451Z,13.50
2019-05-31T03:03:51.471Z,13.50
2019-05-31T03:04:51.490Z,13.46
2019-05-31T03:05:51.510Z,13.49
2019-05-31T03:06:51.537Z,13.47
2019-05-31T03:07:51.547Z,13.43
2019-05-31T03:08:51.567Z,13.47
2019-05-31T03:09:51.594Z,13.45
2019-05-31T03:10:51.611Z,13.43
2019-05-31T03:11:51.626Z,13.45
2019-05-31T03:12:51.646Z,13.46
2019-05-31T03:13:51.665Z,13.46
2019-05-31T03:14:51.686Z,13.50
2019-05-31T03:16:06.324Z,13.45
2019-05-31T03:16:51.724Z,13.46
2019-05-31T03:17:51.743Z,13.45
2019-05-31T03:18:51.767Z,13.47
2019-05-31T03:19:51.782Z,13.45
2019-05-31T03:20:51.816Z,13.45
2019-05-31T03:21:51.841Z,13.39
2019-05-31T03:22:51.910Z,13.46
2019-05-31T03:23:51.894Z,13.37
2019-05-31T03:24:51.900Z,13.39
2019-05-31T03:25:51.964Z,13.43
2019-05-31T03:26:51.972Z,13.42
2019-05-31T03:27:51.960Z,13.42
2019-05-31T03:28:51.960Z,13.45
2019-05-31T03:29:51.977Z,13.39
2019-05-31T03:30:51.997Z,13.45
2019-05-31T03:31:52.027Z,13.43
2019-05-31T03:32:52.036Z,13.31
2019-05-31T03:33:52.054Z,13.40
2019-05-31T03:34:52.085Z,13.39
2019-05-31T03:35:52.092Z,13.39
2019-05-31T03:36:52.111Z,13.36
2019-05-31T03:37:52.131Z,13.46
2019-05-31T03:38:52.149Z,13.37
2019-05-31T03:39:52.180Z,13.46
2019-05-31T03:40:56.573Z,13.43
2019-05-31T03:41:52.210Z,13.43
2019-05-31T03:42:52.228Z,13.47
2019-05-31T03:43:52.248Z,13.47
2019-05-31T03:44:52.266Z,13.45
2019-05-31T03:45:52.288Z,13.45
2019-05-31T03:46:52.312Z,13.47
2019-05-31T03:47:52.329Z,13.50
2019-05-31T03:48:52.345Z,13.46
2019-05-31T03:49:52.557Z,13.47
2019-05-31T03:50:52.425Z,13.49
2019-05-31T03:51:52.401Z,13.40
2019-05-31T03:52:52.423Z,13.49
2019-05-31T03:53:52.443Z,13.55
2019-05-31T03:54:52.460Z,13.55
2019-05-31T03:55:52.484Z,13.52
2019-05-31T03:56:52.502Z,13.54
2019-05-31T03:57:52.516Z,13.47
2019-05-31T03:58:52.537Z,13.60
2019-05-31T03:59:52.561Z,13.55
2019-05-31T04:00:52.576Z,13.57
2019-05-31T04:01:52.601Z,13.54
2019-05-31T04:02:52.618Z,13.58
2019-05-31T04:03:52.638Z,13.62
2019-05-31T04:04:52.657Z,13.68
2019-05-31T04:05:52.688Z,13.68
2019-05-31T04:06:52.697Z,13.80
2019-05-31T04:07:52.715Z,13.75
2019-05-31T04:08:52.736Z,13.78
2019-05-31T04:09:52.757Z,13.87
2019-05-31T04:10:52.774Z,13.85
2019-05-31T04:11:52.797Z,13.98
2019-05-31T04:12:52.815Z,13.98
2019-05-31T04:13:52.836Z,14.05
2019-05-31T04:14:52.854Z,14.07
2019-05-31T04:15:52.875Z,14.13
2019-05-31T04:16:52.919Z,14.25
2019-05-31T04:17:52.915Z,14.30
2019-05-31T04:18:52.938Z,14.30
2019-05-31T04:19:52.963Z,14.43
2019-05-31T04:20:52.993Z,14.44
2019-05-31T04:21:52.999Z,14.53
2019-05-31T04:22:53.015Z,14.55
2019-05-31T04:23:53.035Z,14.62
2019-05-31T04:24:53.055Z,14.67
2019-05-31T04:25:53.078Z,14.63
2019-05-31T04:26:53.094Z,14.68
2019-05-31T04:27:53.115Z,14.73
2019-05-31T04:28:53.136Z,14.81
2019-05-31T04:29:53.163Z,14.74
2019-05-31T04:30:53.190Z,14.86
2019-05-31T04:31:53.199Z,14.90
2019-05-31T04:32:53.219Z,14.89
2019-05-31T04:33:53.244Z,14.90
2019-05-31T04:34:53.256Z,14.94
2019-05-31T04:35:53.280Z,15.00
2019-05-31T04:36:53.311Z,15.04
2019-05-31T04:37:53.324Z,15.12
2019-05-31T04:38:53.340Z,15.11
2019-05-31T04:39:53.364Z,15.11
2019-05-31T04:40:53.382Z,15.19
2019-05-31T04:41:53.406Z,15.15
2019-05-31T04:42:53.422Z,15.33
2019-05-31T04:43:57.794Z,15.36
2019-05-31T04:44:53.470Z,15.36
2019-05-31T04:45:53.490Z,15.37
2019-05-31T04:47:09.768Z,15.48
2019-05-31T04:47:53.526Z,15.54
2019-05-31T04:48:53.549Z,15.66
2019-05-31T04:49:53.570Z,15.66
2019-05-31T04:50:53.588Z,15.67
2019-05-31T04:51:53.611Z,15.76
2019-05-31T04:52:53.633Z,15.85
2019-05-31T04:53:53.652Z,15.91
2019-05-31T04:54:53.677Z,15.96
2019-05-31T04:55:53.712Z,15.92
2019-05-31T04:56:53.771Z,16.05
2019-05-31T04:57:53.787Z,16.10
2019-05-31T04:58:53.799Z,16.05
2019-05-31T04:59:53.872Z,16.24
2019-05-31T05:00:53.856Z,16.26
2019-05-31T05:01:53.852Z,16.34
2019-05-31T05:02:53.841Z,16.34
2019-05-31T05:03:53.865Z,16.39
2019-05-31T05:04:53.887Z,16.41
2019-05-31T05:05:53.905Z,16.51
2019-05-31T05:06:53.929Z,16.57
2019-05-31T05:07:53.959Z,16.59
2019-05-31T05:08:53.973Z,16.79
2019-05-31T05:09:53.992Z,16.87
2019-05-31T05:10:54.012Z,16.87
2019-05-31T05:11:54.035Z,17.04
2019-05-31T05:12:54.057Z,17.10
2019-05-31T05:13:54.080Z,17.16
2019-05-31T05:14:54.103Z,17.20
2019-05-31T05:15:54.129Z,17.30
2019-05-31T05:16:54.147Z,17.44
2019-05-31T05:17:54.170Z,17.56
2019-05-31T05:18:54.189Z,17.54
2019-05-31T05:19:54.215Z,17.57
2019-05-31T05:20:54.232Z,17.66
2019-05-31T05:21:54.256Z,17.76
2019-05-31T05:22:54.278Z,17.82
2019-05-31T05:23:54.298Z,17.93
2019-05-31T05:24:54.330Z,18.00
2019-05-31T05:25:54.345Z,18.08
2019-05-31T05:26:54.367Z,18.16
2019-05-31T05:27:54.389Z,18.16
2019-05-31T05:28:54.412Z,18.26
2019-05-31T05:29:54.434Z,18.37
2019-05-31T05:30:54.467Z,18.27
2019-05-31T05:31:54.480Z,18.37
2019-05-31T05:32:54.501Z,18.45
2019-05-31T05:33:54.525Z,18.48
2019-05-31T05:34:54.545Z,18.51
2019-05-31T05:35:54.569Z,18.49
2019-05-31T05:36:54.591Z,18.48
2019-05-31T05:37:54.620Z,18.60
2019-05-31T05:38:54.639Z,18.60
2019-05-31T05:39:54.660Z,18.53
2019-05-31T05:40:54.684Z,18.60
2019-05-31T05:41:54.705Z,18.58
2019-05-31T05:42:54.728Z,18.58
2019-05-31T05:43:54.751Z,18.66
2019-05-31T05:44:54.773Z,18.60
2019-05-31T05:45:54.795Z,18.63
2019-05-31T05:46:54.824Z,18.61
2019-05-31T05:47:54.843Z,18.52
2019-05-31T05:48:54.876Z,18.52
2019-05-31T05:49:54.886Z,18.58
2019-05-31T05:50:54.907Z,18.63
2019-05-31T05:51:54.935Z,18.57
2019-05-31T05:52:54.951Z,18.60
2019-05-31T05:53:54.978Z,18.60
2019-05-31T05:54:54.997Z,18.61
2019-05-31T05:55:55.020Z,18.57
2019-05-31T05:56:55.042Z,18.66
2019-05-31T05:57:55.066Z,18.66
2019-05-31T05:58:55.087Z,18.64
2019-05-31T05:59:55.109Z,18.63
2019-05-31T06:00:55.136Z,18.64
2019-05-31T06:01:55.156Z,18.66
2019-05-31T06:02:55.177Z,18.67
2019-05-31T06:03:55.199Z,18.66
2019-05-31T06:04:55.228Z,18.81
2019-05-31T06:05:55.249Z,18.76
2019-05-31T06:06:55.266Z,18.83
2019-05-31T06:07:55.289Z,18.83
2019-05-31T06:08:55.314Z,18.91
2019-05-31T06:09:57.865Z,18.98
2019-05-31T06:10:55.365Z,18.96
2019-05-31T06:11:55.381Z,19.05
2019-05-31T06:12:55.405Z,19.07
2019-05-31T06:13:55.427Z,19.20
2019-05-31T06:14:55.449Z,19.27
2019-05-31T06:15:55.471Z,19.38
2019-05-31T06:17:02.179Z,19.38
2019-05-31T06:18:01.382Z,19.39
2019-05-31T06:18:55.541Z,19.57
2019-05-31T06:19:55.562Z,19.67
2019-05-31T06:20:55.593Z,19.77
2019-05-31T06:21:55.682Z,19.62
2019-05-31T06:22:55.671Z,19.79
2019-05-31T06:23:55.691Z,19.90
2019-05-31T06:24:55.704Z,19.94
2019-05-31T06:25:55.745Z,20.04
2019-05-31T06:26:55.739Z,20.14
2019-05-31T06:27:55.753Z,20.14
2019-05-31T06:28:55.784Z,20.19
2019-05-31T06:29:55.802Z,20.32
2019-05-31T06:30:55.825Z,20.44
2019-05-31T06:31:55.849Z,20.49
2019-05-31T06:32:55.873Z,20.53
2019-05-31T06:33:55.899Z,20.63
2019-05-31T06:34:55.922Z,20.66
2019-05-31T06:35:55.949Z,20.78
2019-05-31T06:36:55.970Z,20.93
2019-05-31T06:37:56.046Z,21.04
2019-05-31T06:38:56.021Z,21.15
2019-05-31T06:39:56.043Z,21.22
2019-05-31T06:40:56.070Z,21.30
2019-05-31T06:41:56.095Z,21.51
2019-05-31T06:42:56.131Z,21.63
2019-05-31T06:43:56.149Z,21.77
2019-05-31T06:44:56.170Z,21.91
2019-05-31T06:45:56.196Z,22.10
2019-05-31T06:46:56.222Z,22.19
2019-05-31T06:47:56.251Z,22.26
2019-05-31T06:48:56.273Z,22.33
2019-05-31T06:49:56.301Z,22.40
2019-05-31T06:50:56.326Z,22.41
2019-05-31T06:51:56.352Z,22.43
2019-05-31T06:52:56.382Z,22.56
2019-05-31T06:53:56.405Z,22.58
2019-05-31T06:54:56.442Z,22.71
2019-05-31T06:55:56.460Z,22.77
2019-05-31T06:56:56.486Z,22.81
2019-05-31T06:57:56.511Z,22.84
2019-05-31T06:58:56.539Z,22.95
2019-05-31T06:59:56.564Z,22.99
2019-05-31T07:00:56.591Z,23.02
2019-05-31T07:01:56.620Z,23.18
2019-05-31T07:02:56.650Z,23.21
2019-05-31T07:03:56.672Z,23.44
2019-05-31T07:04:56.700Z,23.63
2019-05-31T07:05:57.413Z,23.73
2019-05-31T07:06:56.755Z,23.86
2019-05-31T07:07:56.786Z,23.96
2019-05-31T07:08:56.810Z,24.11
2019-05-31T07:09:56.841Z,24.26
2019-05-31T07:10:56.866Z,24.38
2019-05-31T07:11:56.894Z,24.58
2019-05-31T07:12:56.922Z,24.65
2019-05-31T07:13:56.964Z,24.77
2019-05-31T07:14:56.981Z,24.84
2019-05-31T07:15:57.012Z,24.94
2019-05-31T07:16:57.049Z,25.14
2019-05-31T07:17:57.078Z,25.25
2019-05-31T07:18:57.100Z,25.48
2019-05-31T07:19:57.130Z,25.56
2019-05-31T07:20:57.167Z,25.59
2019-05-31T07:21:57.191Z,25.77
2019-05-31T07:22:57.222Z,25.83
2019-05-31T07:23:57.253Z,25.96
2019-05-31T07:24:57.283Z,26.08
2019-05-31T07:25:57.320Z,26.23
2019-05-31T07:27:00.540Z,26.31
2019-05-31T07:27:57.377Z,26.41
2019-05-31T07:28:57.409Z,26.48
2019-05-31T07:29:57.438Z,26.61
2019-05-31T07:30:57.468Z,26.63
2019-05-31T07:31:57.503Z,26.67
2019-05-31T07:32:57.595Z,26.73
2019-05-31T07:33:57.590Z,26.96
2019-05-31T07:34:57.667Z,26.93
2019-05-31T07:35:57.667Z,27.00
2019-05-31T07:36:57.658Z,27.16
2019-05-31T07:37:57.689Z,27.18
2019-05-31T07:38:57.721Z,27.22
2019-05-31T07:39:57.781Z,27.23
2019-05-31T07:40:57.785Z,27.33
2019-05-31T07:41:57.819Z,27.37
2019-05-31T07:42:57.851Z,27.48
2019-05-31T07:43:57.886Z,27.44
2019-05-31T07:44:57.917Z,27.60
2019-05-31T07:45:57.951Z,27.68
2019-05-31T07:47:06.617Z,27.71
2019-05-31T07:47:58.013Z,27.72
2019-05-31T07:49:06.814Z,27.76
2019-05-31T07:49:58.080Z,27.73
2019-05-31T07:50:58.114Z,27.78
2019-05-31T07:51:58.151Z,27.90
2019-05-31T07:52:58.181Z,27.95
2019-05-31T07:53:58.217Z,28.06
2019-05-31T07:54:58.252Z,28.08
2019-05-31T07:55:58.279Z,28.13
2019-05-31T07:56:58.315Z,28.28
2019-05-31T07:57:58.349Z,28.27
2019-05-31T07:58:58.687Z,28.28
2019-05-31T07:59:58.416Z,28.27
2019-05-31T08:00:58.452Z,28.34
2019-05-31T08:01:58.485Z,28.37
2019-05-31T08:02:58.519Z,28.37
2019-05-31T08:03:58.550Z,28.52
2019-05-31T08:04:58.589Z,28.52
2019-05-31T08:05:58.620Z,28.64
2019-05-31T08:06:58.654Z,28.68
2019-05-31T08:07:58.695Z,28.59
2019-05-31T08:08:58.722Z,28.67
2019-05-31T08:09:58.758Z,28.57
2019-05-31T08:11:02.827Z,28.60
2019-05-31T08:11:58.823Z,28.52
2019-05-31T08:12:58.860Z,28.65
2019-05-31T08:13:58.889Z,28.55
2019-05-31T08:14:58.921Z,28.62
2019-05-31T08:15:58.957Z,28.68
2019-05-31T08:16:59.298Z,28.78
2019-05-31T08:17:59.019Z,28.82
2019-05-31T08:19:14.725Z,29.02
2019-05-31T08:19:59.088Z,28.86
2019-05-31T08:20:59.123Z,29.00
2019-05-31T08:21:59.212Z,29.16
2019-05-31T08:22:59.193Z,29.28
2019-05-31T08:23:59.229Z,29.44
2019-05-31T08:24:59.262Z,29.57
2019-05-31T08:25:59.298Z,29.67
2019-05-31T08:26:59.331Z,29.64
2019-05-31T08:27:59.363Z,29.68
2019-05-31T08:28:59.413Z,29.69
2019-05-31T08:29:59.438Z,29.71
2019-05-31T08:30:59.518Z,29.76
2019-05-31T08:31:59.521Z,29.76
2019-05-31T08:32:59.584Z,29.71
2019-05-31T08:33:59.585Z,29.79
2019-05-31T08:34:59.599Z,29.69
2019-05-31T08:35:59.634Z,29.62
2019-05-31T08:37:03.360Z,29.46
2019-05-31T08:37:59.701Z,29.46
2019-05-31T08:38:59.733Z,29.40
2019-05-31T08:39:59.766Z,29.32
2019-05-31T08:40:59.824Z,29.24
2019-05-31T08:41:59.830Z,29.05
2019-05-31T08:42:59.861Z,29.03
2019-05-31T08:43:59.893Z,28.93
2019-05-31T08:45:06.510Z,28.93
2019-05-31T08:45:59.962Z,28.84
2019-05-31T08:46:59.989Z,28.77
2019-05-31T08:48:00.021Z,28.82
2019-05-31T08:49:00.052Z,28.72
2019-05-31T08:50:00.084Z,28.68
2019-05-31T08:51:00.114Z,28.60
2019-05-31T08:52:00.147Z,28.45
2019-05-31T08:53:00.177Z,28.37
2019-05-31T08:54:00.207Z,28.41
2019-05-31T08:55:00.236Z,28.28
2019-05-31T08:56:00.268Z,28.20
2019-05-31T08:57:00.299Z,28.15
2019-05-31T08:58:00.331Z,28.00
2019-05-31T08:59:00.361Z,27.98
2019-05-31T09:00:00.392Z,27.88
2019-05-31T09:01:00.418Z,27.86
2019-05-31T09:02:09.906Z,27.63
2019-05-31T09:03:00.479Z,27.44
2019-05-31T09:04:00.541Z,27.37
2019-05-31T09:05:00.537Z,27.40
2019-05-31T09:06:00.567Z,27.38
2019-05-31T09:07:00.596Z,27.37
2019-05-31T09:08:00.626Z,27.25
2019-05-31T09:09:00.656Z,27.23
2019-05-31T09:10:00.684Z,27.30
2019-05-31T09:11:00.715Z,27.37
2019-05-31T09:12:00.744Z,27.43
2019-05-31T09:13:00.779Z,27.48
2019-05-31T09:14:00.802Z,27.66
2019-05-31T09:15:00.835Z,27.64
2019-05-31T09:16:00.864Z,27.68
2019-05-31T09:17:00.934Z,27.66
2019-05-31T09:18:00.932Z,27.76
2019-05-31T09:19:00.957Z,27.63
2019-05-31T09:20:00.991Z,27.64
2019-05-31T09:21:01.017Z,27.61
2019-05-31T09:22:01.048Z,27.53
2019-05-31T09:23:01.077Z,27.53
2019-05-31T09:24:01.299Z,27.38
2019-05-31T09:25:01.166Z,27.40
2019-05-31T09:26:01.175Z,27.37
2019-05-31T09:27:01.202Z,27.33
2019-05-31T09:28:01.229Z,27.26
2019-05-31T09:29:01.261Z,27.25
2019-05-31T09:31:01.505Z,27.18
2019-05-31T09:32:01.347Z,27.08
2019-05-31T09:33:01.439Z,27.05
2019-05-31T09:34:05.254Z,27.04
2019-05-31T09:35:01.509Z,27.01
2019-05-31T09:36:01.534Z,27.00
2019-05-31T09:37:01.516Z,26.91
2019-05-31T09:38:01.521Z,26.76
2019-05-31T09:39:01.549Z,26.76
2019-05-31T09:40:01.589Z,26.70
2019-05-31T09:41:01.607Z,26.61
2019-05-31T09:42:01.649Z,26.46
2019-05-31T09:43:01.665Z,26.44
2019-05-31T09:44:01.693Z,26.42
2019-05-31T09:45:01.721Z,26.36
2019-05-31T09:46:01.751Z,26.33
2019-05-31T09:47:01.777Z,26.30
2019-05-31T09:48:01.876Z,26.39
2019-05-31T09:49:01.835Z,26.34
2019-05-31T09:50:12.191Z,26.42
2019-05-31T09:51:01.895Z,26.37
2019-05-31T09:52:01.921Z,26.36
2019-05-31T09:53:01.952Z,26.44
2019-05-31T09:54:01.975Z,26.36
2019-05-31T09:55:02.004Z,26.42
2019-05-31T09:56:02.036Z,26.34
2019-05-31T09:57:02.070Z,26.24
2019-05-31T09:58:02.090Z,26.27
2019-05-31T09:59:02.122Z,26.42
2019-05-31T10:00:02.172Z,26.48
2019-05-31T10:01:02.175Z,26.56
2019-05-31T10:02:02.204Z,26.63
2019-05-31T10:03:02.229Z,26.78
2019-05-31T10:04:02.269Z,26.91
2019-05-31T10:05:02.289Z,27.01
2019-05-31T10:06:02.322Z,27.11
2019-05-31T10:07:02.347Z,27.25
2019-05-31T10:08:09.726Z,27.25
2019-05-31T10:09:02.412Z,27.37
2019-05-31T10:10:02.438Z,27.35
2019-05-31T10:11:02.470Z,27.45
2019-05-31T10:12:02.500Z,27.45
2019-05-31T10:13:02.528Z,27.64
2019-05-31T10:14:02.637Z,27.66
2019-05-31T10:15:02.587Z,27.67
2019-05-31T10:16:02.617Z,27.81
2019-05-31T10:17:02.655Z,27.76
2019-05-31T10:18:02.681Z,27.88
2019-05-31T10:19:02.710Z,27.97
2019-05-31T10:20:02.747Z,27.97
2019-05-31T10:21:02.780Z,28.01
2019-05-31T10:22:02.800Z,28.10
2019-05-31T10:23:02.833Z,28.16
2019-05-31T10:24:02.862Z,28.23
2019-05-31T10:25:02.891Z,28.23
2019-05-31T10:26:02.929Z,28.33
2019-05-31T10:27:02.952Z,28.31
2019-05-31T10:28:02.994Z,28.28
2019-05-31T10:29:03.017Z,28.37
2019-05-31T10:30:03.061Z,28.40
2019-05-31T10:31:14.912Z,28.50
2019-05-31T10:32:03.110Z,28.60
2019-05-31T10:33:03.142Z,28.84
2019-05-31T10:34:03.170Z,28.83
2019-05-31T10:35:03.202Z,28.94
2019-05-31T10:36:03.236Z,29.06
2019-05-31T10:37:03.265Z,29.15
2019-05-31T10:38:03.376Z,29.24
2019-05-31T10:39:03.375Z,29.32
2019-05-31T10:40:03.426Z,29.49
2019-05-31T10:41:03.429Z,29.65
2019-05-31T10:42:18.790Z,29.71
2019-05-31T10:43:03.464Z,29.73
2019-05-31T10:44:03.609Z,29.90
2019-05-31T10:45:03.547Z,30.10
2019-05-31T10:46:03.567Z,30.35
2019-05-31T10:47:03.601Z,30.61
2019-05-31T10:48:03.644Z,30.91
2019-05-31T10:49:06.594Z,31.11
2019-05-31T10:50:03.710Z,31.15
2019-05-31T10:51:03.744Z,31.39
2019-05-31T10:52:03.782Z,31.69
2019-05-31T10:53:03.816Z,31.93
2019-05-31T10:54:03.853Z,32.12
2019-05-31T10:55:03.892Z,32.34
2019-05-31T10:56:03.929Z,32.59
2019-05-31T10:57:03.967Z,32.63
2019-05-31T10:58:04.004Z,32.63
2019-05-31T10:59:04.040Z,32.61
2019-05-31T11:00:05.978Z,32.75
2019-05-31T11:01:04.117Z,32.90
2019-05-31T11:02:04.176Z,32.98
2019-05-31T11:03:04.191Z,33.01
2019-05-31T11:04:04.229Z,32.91
2019-05-31T11:05:04.267Z,32.98
2019-05-31T11:06:04.304Z,32.91
2019-05-31T11:07:04.342Z,33.08
2019-05-31T11:08:04.384Z,33.17
2019-05-31T11:09:04.418Z,33.28
2019-05-31T11:10:04.456Z,33.28
2019-05-31T11:11:04.495Z,33.44
2019-05-31T11:12:04.530Z,33.40
2019-05-31T11:13:04.572Z,33.54
2019-05-31T11:14:04.607Z,33.76
2019-05-31T11:15:04.642Z,33.82
2019-05-31T11:16:04.683Z,33.88
2019-05-31T11:17:04.723Z,33.77
2019-05-31T11:18:04.761Z,33.88
2019-05-31T11:19:04.795Z,33.95
2019-05-31T11:20:04.883Z,34.09
2019-05-31T11:21:04.875Z,34.28
2019-05-31T11:22:04.912Z,34.31
2019-05-31T11:23:04.948Z,34.21
2019-05-31T11:24:04.988Z,34.25
2019-05-31T11:25:05.030Z,34.37
2019-05-31T11:26:05.065Z,34.38
2019-05-31T11:27:05.203Z,34.32
2019-05-31T11:28:05.392Z,34.38
2019-05-31T11:29:05.180Z,34.32
2019-05-31T11:30:05.233Z,34.29
2019-05-31T11:31:05.306Z,34.16
2019-05-31T11:32:05.378Z,34.00
2019-05-31T11:33:05.385Z,34.07
2019-05-31T11:34:05.382Z,34.21
2019-05-31T11:35:05.405Z,34.10
2019-05-31T11:36:05.556Z,34.07
2019-05-31T11:37:05.480Z,34.10
2019-05-31T11:38:05.523Z,33.95
2019-05-31T11:39:05.575Z,34.09
2019-05-31T11:40:05.597Z,34.09
2019-05-31T11:41:05.627Z,34.24
2019-05-31T11:42:05.665Z,34.35
2019-05-31T11:43:09.336Z,34.47
2019-05-31T11:44:05.740Z,34.53
2019-05-31T11:45:05.776Z,34.59
2019-05-31T11:46:05.814Z,34.79
2019-05-31T11:47:05.852Z,34.85
2019-05-31T11:48:05.890Z,34.93
2019-05-31T11:49:05.930Z,35.00
2019-05-31T11:50:05.968Z,35.13
2019-05-31T11:51:27.323Z,35.41
2019-05-31T11:52:06.045Z,35.39
2019-05-31T11:53:06.086Z,35.52
2019-05-31T11:54:06.124Z,35.63
2019-05-31T11:55:21.649Z,35.71
2019-05-31T11:56:06.204Z,35.81
2019-05-31T11:57:06.241Z,35.96
2019-05-31T11:58:06.280Z,35.84
2019-05-31T11:59:06.319Z,35.98
2019-05-31T12:00:06.363Z,36.00
2019-05-31T12:01:06.398Z,36.13
2019-05-31T12:02:06.439Z,36.26
2019-05-31T12:03:06.477Z,36.33
2019-05-31T12:04:06.516Z,36.25
2019-05-31T12:05:06.565Z,36.22
2019-05-31T12:06:06.597Z,36.25
2019-05-31T12:07:06.634Z,35.98
2019-05-31T12:08:06.675Z,35.93
2019-05-31T12:09:06.716Z,36.08
2019-05-31T12:10:06.752Z,36.11
2019-05-31T12:11:06.790Z,36.06
2019-05-31T12:12:06.830Z,36.03
2019-05-31T12:13:06.869Z,36.01
2019-05-31T12:14:06.913Z,36.09
2019-05-31T12:15:06.946Z,36.03
2019-05-31T12:16:06.986Z,36.01
2019-05-31T12:17:07.027Z,35.97
2019-05-31T12:18:07.064Z,36.18
2019-05-31T12:19:07.104Z,36.20
2019-05-31T12:20:13.914Z,36.25
2019-05-31T12:21:07.248Z,36.35
2019-05-31T12:22:07.242Z,36.20
2019-05-31T12:23:07.302Z,36.06
2019-05-31T12:24:07.307Z,36.03
2019-05-31T12:25:07.332Z,35.91
2019-05-31T12:26:07.371Z,35.68
2019-05-31T12:27:07.412Z,35.60
2019-05-31T12:28:07.445Z,35.47
2019-05-31T12:29:07.482Z,35.35
2019-05-31T12:30:20.826Z,35.12
2019-05-31T12:31:10.687Z,34.94
2019-05-31T12:32:07.592Z,34.73
2019-05-31T12:33:07.627Z,34.51
2019-05-31T12:34:07.665Z,34.31
2019-05-31T12:35:07.700Z,34.10
2019-05-31T12:36:07.736Z,33.79
2019-05-31T12:37:07.772Z,33.72
2019-05-31T12:38:07.805Z,33.53
2019-05-31T12:39:07.840Z,33.42
2019-05-31T12:40:07.878Z,33.22
2019-05-31T12:41:07.931Z,33.16
2019-05-31T12:42:07.942Z,32.97
2019-05-31T12:43:07.979Z,32.72
2019-05-31T12:44:08.011Z,32.49
2019-05-31T12:45:08.058Z,32.46
2019-05-31T12:46:08.080Z,32.30
2019-05-31T12:47:08.116Z,32.15
2019-05-31T12:48:08.193Z,31.89
2019-05-31T12:49:08.180Z,31.74
2019-05-31T12:50:08.229Z,31.55
2019-05-31T12:51:08.244Z,31.45
2019-05-31T12:52:08.273Z,31.35
2019-05-31T12:53:08.309Z,31.26
2019-05-31T12:54:08.340Z,31.14